(°C)
-8°
-8°
-7°
-7°
-7°
-7°
-8°
(°C)
-12°
-12°
-11°
-11°
-11°
-11°
-11°
SE
SE
SE
SE
ESE
ESE
شرق
(كم/سا)
4-9
4-8
3-6
3-5
2-5
2-6
2-5
(مم)
1
1
0
0
0
0
0
(%)
40
40
27
26
18
3
2

مستوى ارتفاع الشمس

/ -45.8°
sun-icon
UV 0
07:49
15:59
قمر المساء (244°)
22:27
10:07

متر ل55.61°شمال 49.28°شرق (UWKD)

الوقت الشروط درجة الحرارة/
نقطة الندى
رياح مجال رؤية حالة الطقس غيوم الضغط تغيير خام
IFR -8°C / °C 140º 2kt 4100m Light Snow 1.00mm precipitation Vertical Visibility of 0ft. 1032 No Significant change. Runway 11: Dry snow, 51-100% contamination with 3mm, friction coefficient 0.36. UWKD 231830Z 14001MPS 4100 -SN BKN039 M08/M10 Q1032 R11/490336 NOSIG RMK QFE764/1019
IFR -8°C / °C 160º 4kt 3200m Light Snow 1.00mm precipitation Vertical Visibility of 0ft. 1032 No Significant change. Runway 11: Dry snow, 51-100% contamination with 3mm, friction coefficient 0.36. UWKD 231800Z 16002MPS 3200 -SN BKN045 M08/M10 Q1032 R11/490336 NOSIG RMK QFE764/1018
IFR -8°C / °C 140º 4kt 4000m Light Snow 1.00mm precipitation Vertical Visibility of 0ft. 1032 No Significant change. Runway 11: Dry snow, 51-100% contamination with 3mm, friction coefficient 0.36. UWKD 231730Z 14002MPS 4000 -SN BKN037 M08/M10 Q1032 R11/490336 NOSIG RMK QFE764/1018
MVFR -8°C / °C 140º 4kt 5000m Light Snow 1.00mm precipitation Vertical Visibility of 0ft. 1032 No Significant change. Runway 11: Dry snow, 51-100% contamination with 3mm, friction coefficient 0.36. UWKD 231700Z 14002MPS 5000 -SN BKN044 M08/M10 Q1032 R11/490336 NOSIG RMK QFE763/1018
MVFR -8°C / °C 150º 4kt 5000m Light Snow 1.00mm precipitation Vertical Visibility of 0ft. 1032 No Significant change. Runway 11: Dry snow, 51-100% contamination with 3mm, friction coefficient 0.36. UWKD 231630Z 15002MPS 5000 -SN BKN049 M08/M10 Q1032 R11/490336 NOSIG RMK QFE763/1018
IFR -8°C / °C 140º 6kt 3500m Light Snow 1.00mm precipitation Vertical Visibility of 0ft. 1031 No Significant change. Runway 11: Dry snow, 26-50% contamination with 3mm, friction coefficient 0.40. UWKD 231600Z 14003MPS 3500 -SN BKN043 M08/M10 Q1031 R11/450340 NOSIG RMK QFE763/1018
IFR -8°C / °C 140º 4kt 4300m Light Snow 1.00mm precipitation Vertical Visibility of 0ft. 1031 No Significant change. Runway 11: Dry snow, 26-50% contamination with 3mm, friction coefficient 0.40. UWKD 231530Z 14002MPS 4300 -SN BKN035 M08/M10 Q1031 R11/450340 NOSIG RMK QFE763/1018
IFR -8°C / °C 130º 4kt 4100m Light Snow 1.00mm precipitation Vertical Visibility of 0ft. 1031 Temporary: Visibility 2000. Snow . RMK QFE763/1017 . Runway 11: Dry snow, 26-50% contamination with 3mm, friction coefficient 0.40. UWKD 231500Z 13002MPS 4100 -SN BKN048 M08/M10 Q1031 R11/450340 TEMPO 2000 SN RMK QFE763/1017
IFR -8°C / °C 150º 6kt 2500m Light Snow 1.00mm precipitation Vertical Visibility of 0ft. 1031 Temporary: Visibility 1000. Snow . RMK QFE763/1018 . Runway 11: Dry snow, 26-50% contamination with 3mm, friction coefficient 0.40. UWKD 231430Z 15003MPS 2500 -SN BKN016 M08/M10 Q1031 R11/450340 TEMPO 1000 SN RMK QFE763/1018
IFR -8°C / °C 140º 4kt 1900m Snow 3.00mm precipitation Vertical Visibility of 0ft. 1031 Temporary: Visibility 1000. Snow . RMK QFE763/1017 . Runway 11: Dry snow, 26-50% contamination with 3mm, friction coefficient 0.40. UWKD 231400Z 14002MPS 1900 SN BKN016 M08/M10 Q1031 R11/450340 TEMPO 1000 SN RMK QFE763/1017
IFR -8°C / °C 150º 6kt 2300m Light Snow 1.00mm precipitation Vertical Visibility of 0ft. 1030 No Significant change. Runway 11: Dry snow, 26-50% contamination with 3mm, friction coefficient 0.40. UWKD 231330Z 15003MPS 2300 -SN BKN022 M08/M10 Q1030 R11/450340 NOSIG RMK QFE763/1017
IFR -8°C / °C 140º 6kt 3600m Light Snow 1.00mm precipitation Vertical Visibility of 0ft. 1030 No Significant change. Runway 11: Dry snow, 26-50% contamination with 3mm, friction coefficient 0.40. UWKD 231300Z 14003MPS 3600 -SN BKN033 M08/M10 Q1030 R11/450340 NOSIG RMK QFE762/1017
IFR -8°C / °C 140º 6kt 2800m Light Snow 1.00mm precipitation Vertical Visibility of 0ft. 1030 No Significant change. Runway 11: Dry snow, 26-50% contamination with 3mm, friction coefficient 0.40. UWKD 231230Z 14003MPS 2800 -SN BKN028 M08/M10 Q1030 R11/450340 NOSIG RMK QFE762/1016
IFR -8°C / °C 150º 6kt 4400m Light Snow 1.00mm precipitation Vertical Visibility of 0ft. 1030 No Significant change. Runway 11: Dry snow, 26-50% contamination with 3mm, friction coefficient 0.40. UWKD 231200Z 15003MPS 4400 -SN BKN046 M08/M10 Q1030 R11/450340 NOSIG RMK QFE762/1016
MVFR -8°C / °C 160º 6kt 4900m Light Snow 1.00mm precipitation Vertical Visibility of 0ft. 1029 No Significant change. Runway 11: Dry snow, 26-50% contamination with 3mm, friction coefficient 0.40. UWKD 231130Z 16003MPS 4900 -SN BKN042 M08/M10 Q1029 R11/450340 NOSIG RMK QFE762/1016
IFR -8°C / °C 170º 8kt 3200m Light Snow 1.00mm precipitation Vertical Visibility of 0ft. 1029 No Significant change. Runway 11: Dry snow, 26-50% contamination with 3mm, friction coefficient 0.40. UWKD 231100Z 17004MPS 3200 -SN BKN029 M08/M10 Q1029 R11/450340 NOSIG RMK QFE761/1015
MVFR -8°C / °C 160º 10kt 8000m Light Snow 1.00mm precipitation Vertical Visibility of 0ft. 1029 No Significant change. Runway 11: Dry snow, 26-50% contamination with 3mm, friction coefficient 0.40. UWKD 231030Z 16005MPS 8000 -SN BKN037 M08/M11 Q1029 R11/450340 NOSIG RMK QFE761/1015
VFR -8°C / °C 160º 10kt >10km Light Snow 1.00mm precipitation Vertical Visibility of 0ft. 1029 No Significant change. Runway 11: Dry snow, 26-50% contamination with 3mm, friction coefficient 0.40. UWKD 231000Z 16005MPS 9999 -SN BKN049 M08/M11 Q1029 R11/450340 NOSIG RMK QFE761/1015
VFR -8°C / °C 160º 10kt >10km Light Snow 1.00mm precipitation Vertical Visibility of 0ft. 1028 No Significant change. Runway 11: Dry snow, 26-50% contamination with 3mm, friction coefficient 0.40. UWKD 230930Z 16005MPS 9999 -SN BKN040 M08/M11 Q1028 R11/450340 NOSIG RMK QFE761/1015
VFR -8°C / °C 160º 12kt >10km - Clouds and Visibility OK 1028 No Significant change. Runway 11: Dry snow, 26-50% contamination with 3mm, friction coefficient 0.40. UWKD 230900Z 16006MPS CAVOK M08/M11 Q1028 R11/450340 NOSIG RMK QFE761/1015
VFR -8°C / °C 160º 12kt >10km - Broken Clouds 4600ft 1028 Temporary: Visibility 3100. Light Snow . RMK QFE761/1015 . Runway 11: Dry snow, 26-50% contamination with 5mm, friction coefficient 0.36. UWKD 230830Z 16006MPS 9999 BKN046 M08/M11 Q1028 R11/450536 TEMPO 3100 -SN RMK QFE761/1015
IFR -9°C / °C 160º 10kt 3100m Light Snow 1.00mm precipitation Vertical Visibility of 0ft. 1028 Temporary: Visibility 2000. Snow . RMK QFE761/1014 . Runway 11: Dry snow, 26-50% contamination with 5mm, friction coefficient 0.36. UWKD 230800Z 16005MPS 3100 -SN OVC033 M09/M11 Q1028 R11/450536 TEMPO 2000 SN RMK QFE761/1014
IFR -9°C / °C 160º 12kt 3500m Light Snow 1.00mm precipitation Vertical Visibility of 0ft. 1027 Temporary: Visibility 1500. Snow . RMK QFE760/1014 . Runway 11: Dry snow, 26-50% contamination with 5mm, friction coefficient 0.36. UWKD 230730Z 16006MPS 3500 -SN OVC030 M09/M11 Q1027 R11/450536 TEMPO 1500 SN RMK QFE760/1014
IFR -9°C / °C 150º 10kt 2400m Light Snow 1.00mm precipitation Vertical Visibility of 0ft. 1027 Temporary: Visibility 1200. Snow . RMK QFE760/1014 . Runway 11: Dry snow, 26-50% contamination with 5mm, friction coefficient 0.36. UWKD 230700Z 15005MPS 2400 -SN OVC032 M09/M11 Q1027 R11/450536 TEMPO 1200 SN RMK QFE760/1014

IFR

-8°C / °C

[أكثر]
رياح 140º 2kt
مجال رؤية 4100m
حالة الطقس Light Snow 1.00mm precipitation
غيوم Vertical Visibility of 0ft.
الضغط 1032
تغيير No Significant change. Runway 11: Dry snow, 51-100% contamination with 3mm, friction coefficient 0.36.
خام UWKD 231830Z 14001MPS 4100 -SN BKN039 M08/M10 Q1032 R11/490336 NOSIG RMK QFE764/1019

IFR

-8°C / °C

[أكثر]
رياح 160º 4kt
مجال رؤية 3200m
حالة الطقس Light Snow 1.00mm precipitation
غيوم Vertical Visibility of 0ft.
الضغط 1032
تغيير No Significant change. Runway 11: Dry snow, 51-100% contamination with 3mm, friction coefficient 0.36.
خام UWKD 231800Z 16002MPS 3200 -SN BKN045 M08/M10 Q1032 R11/490336 NOSIG RMK QFE764/1018

IFR

-8°C / °C

[أكثر]
رياح 140º 4kt
مجال رؤية 4000m
حالة الطقس Light Snow 1.00mm precipitation
غيوم Vertical Visibility of 0ft.
الضغط 1032
تغيير No Significant change. Runway 11: Dry snow, 51-100% contamination with 3mm, friction coefficient 0.36.
خام UWKD 231730Z 14002MPS 4000 -SN BKN037 M08/M10 Q1032 R11/490336 NOSIG RMK QFE764/1018

MVFR

-8°C / °C

[أكثر]
رياح 140º 4kt
مجال رؤية 5000m
حالة الطقس Light Snow 1.00mm precipitation
غيوم Vertical Visibility of 0ft.
الضغط 1032
تغيير No Significant change. Runway 11: Dry snow, 51-100% contamination with 3mm, friction coefficient 0.36.
خام UWKD 231700Z 14002MPS 5000 -SN BKN044 M08/M10 Q1032 R11/490336 NOSIG RMK QFE763/1018

MVFR

-8°C / °C

[أكثر]
رياح 150º 4kt
مجال رؤية 5000m
حالة الطقس Light Snow 1.00mm precipitation
غيوم Vertical Visibility of 0ft.
الضغط 1032
تغيير No Significant change. Runway 11: Dry snow, 51-100% contamination with 3mm, friction coefficient 0.36.
خام UWKD 231630Z 15002MPS 5000 -SN BKN049 M08/M10 Q1032 R11/490336 NOSIG RMK QFE763/1018

IFR

-8°C / °C

[أكثر]
رياح 140º 6kt
مجال رؤية 3500m
حالة الطقس Light Snow 1.00mm precipitation
غيوم Vertical Visibility of 0ft.
الضغط 1031
تغيير No Significant change. Runway 11: Dry snow, 26-50% contamination with 3mm, friction coefficient 0.40.
خام UWKD 231600Z 14003MPS 3500 -SN BKN043 M08/M10 Q1031 R11/450340 NOSIG RMK QFE763/1018

IFR

-8°C / °C

[أكثر]
رياح 140º 4kt
مجال رؤية 4300m
حالة الطقس Light Snow 1.00mm precipitation
غيوم Vertical Visibility of 0ft.
الضغط 1031
تغيير No Significant change. Runway 11: Dry snow, 26-50% contamination with 3mm, friction coefficient 0.40.
خام UWKD 231530Z 14002MPS 4300 -SN BKN035 M08/M10 Q1031 R11/450340 NOSIG RMK QFE763/1018

IFR

-8°C / °C

[أكثر]
رياح 130º 4kt
مجال رؤية 4100m
حالة الطقس Light Snow 1.00mm precipitation
غيوم Vertical Visibility of 0ft.
الضغط 1031
تغيير Temporary: Visibility 2000. Snow . RMK QFE763/1017 . Runway 11: Dry snow, 26-50% contamination with 3mm, friction coefficient 0.40.
خام UWKD 231500Z 13002MPS 4100 -SN BKN048 M08/M10 Q1031 R11/450340 TEMPO 2000 SN RMK QFE763/1017

IFR

-8°C / °C

[أكثر]
رياح 150º 6kt
مجال رؤية 2500m
حالة الطقس Light Snow 1.00mm precipitation
غيوم Vertical Visibility of 0ft.
الضغط 1031
تغيير Temporary: Visibility 1000. Snow . RMK QFE763/1018 . Runway 11: Dry snow, 26-50% contamination with 3mm, friction coefficient 0.40.
خام UWKD 231430Z 15003MPS 2500 -SN BKN016 M08/M10 Q1031 R11/450340 TEMPO 1000 SN RMK QFE763/1018

IFR

-8°C / °C

[أكثر]
رياح 140º 4kt
مجال رؤية 1900m
حالة الطقس Snow 3.00mm precipitation
غيوم Vertical Visibility of 0ft.
الضغط 1031
تغيير Temporary: Visibility 1000. Snow . RMK QFE763/1017 . Runway 11: Dry snow, 26-50% contamination with 3mm, friction coefficient 0.40.
خام UWKD 231400Z 14002MPS 1900 SN BKN016 M08/M10 Q1031 R11/450340 TEMPO 1000 SN RMK QFE763/1017

IFR

-8°C / °C

[أكثر]
رياح 150º 6kt
مجال رؤية 2300m
حالة الطقس Light Snow 1.00mm precipitation
غيوم Vertical Visibility of 0ft.
الضغط 1030
تغيير No Significant change. Runway 11: Dry snow, 26-50% contamination with 3mm, friction coefficient 0.40.
خام UWKD 231330Z 15003MPS 2300 -SN BKN022 M08/M10 Q1030 R11/450340 NOSIG RMK QFE763/1017

IFR

-8°C / °C

[أكثر]
رياح 140º 6kt
مجال رؤية 3600m
حالة الطقس Light Snow 1.00mm precipitation
غيوم Vertical Visibility of 0ft.
الضغط 1030
تغيير No Significant change. Runway 11: Dry snow, 26-50% contamination with 3mm, friction coefficient 0.40.
خام UWKD 231300Z 14003MPS 3600 -SN BKN033 M08/M10 Q1030 R11/450340 NOSIG RMK QFE762/1017

IFR

-8°C / °C

[أكثر]
رياح 140º 6kt
مجال رؤية 2800m
حالة الطقس Light Snow 1.00mm precipitation
غيوم Vertical Visibility of 0ft.
الضغط 1030
تغيير No Significant change. Runway 11: Dry snow, 26-50% contamination with 3mm, friction coefficient 0.40.
خام UWKD 231230Z 14003MPS 2800 -SN BKN028 M08/M10 Q1030 R11/450340 NOSIG RMK QFE762/1016

IFR

-8°C / °C

[أكثر]
رياح 150º 6kt
مجال رؤية 4400m
حالة الطقس Light Snow 1.00mm precipitation
غيوم Vertical Visibility of 0ft.
الضغط 1030
تغيير No Significant change. Runway 11: Dry snow, 26-50% contamination with 3mm, friction coefficient 0.40.
خام UWKD 231200Z 15003MPS 4400 -SN BKN046 M08/M10 Q1030 R11/450340 NOSIG RMK QFE762/1016

MVFR

-8°C / °C

[أكثر]
رياح 160º 6kt
مجال رؤية 4900m
حالة الطقس Light Snow 1.00mm precipitation
غيوم Vertical Visibility of 0ft.
الضغط 1029
تغيير No Significant change. Runway 11: Dry snow, 26-50% contamination with 3mm, friction coefficient 0.40.
خام UWKD 231130Z 16003MPS 4900 -SN BKN042 M08/M10 Q1029 R11/450340 NOSIG RMK QFE762/1016

IFR

-8°C / °C

[أكثر]
رياح 170º 8kt
مجال رؤية 3200m
حالة الطقس Light Snow 1.00mm precipitation
غيوم Vertical Visibility of 0ft.
الضغط 1029
تغيير No Significant change. Runway 11: Dry snow, 26-50% contamination with 3mm, friction coefficient 0.40.
خام UWKD 231100Z 17004MPS 3200 -SN BKN029 M08/M10 Q1029 R11/450340 NOSIG RMK QFE761/1015

MVFR

-8°C / °C

[أكثر]
رياح 160º 10kt
مجال رؤية 8000m
حالة الطقس Light Snow 1.00mm precipitation
غيوم Vertical Visibility of 0ft.
الضغط 1029
تغيير No Significant change. Runway 11: Dry snow, 26-50% contamination with 3mm, friction coefficient 0.40.
خام UWKD 231030Z 16005MPS 8000 -SN BKN037 M08/M11 Q1029 R11/450340 NOSIG RMK QFE761/1015

VFR

-8°C / °C

[أكثر]
رياح 160º 10kt
مجال رؤية >10km
حالة الطقس Light Snow 1.00mm precipitation
غيوم Vertical Visibility of 0ft.
الضغط 1029
تغيير No Significant change. Runway 11: Dry snow, 26-50% contamination with 3mm, friction coefficient 0.40.
خام UWKD 231000Z 16005MPS 9999 -SN BKN049 M08/M11 Q1029 R11/450340 NOSIG RMK QFE761/1015

VFR

-8°C / °C

[أكثر]
رياح 160º 10kt
مجال رؤية >10km
حالة الطقس Light Snow 1.00mm precipitation
غيوم Vertical Visibility of 0ft.
الضغط 1028
تغيير No Significant change. Runway 11: Dry snow, 26-50% contamination with 3mm, friction coefficient 0.40.
خام UWKD 230930Z 16005MPS 9999 -SN BKN040 M08/M11 Q1028 R11/450340 NOSIG RMK QFE761/1015

VFR

-8°C / °C

[أكثر]
رياح 160º 12kt
مجال رؤية >10km
حالة الطقس -
غيوم Clouds and Visibility OK
الضغط 1028
تغيير No Significant change. Runway 11: Dry snow, 26-50% contamination with 3mm, friction coefficient 0.40.
خام UWKD 230900Z 16006MPS CAVOK M08/M11 Q1028 R11/450340 NOSIG RMK QFE761/1015

VFR

-8°C / °C

[أكثر]
رياح 160º 12kt
مجال رؤية >10km
حالة الطقس -
غيوم Broken Clouds 4600ft
الضغط 1028
تغيير Temporary: Visibility 3100. Light Snow . RMK QFE761/1015 . Runway 11: Dry snow, 26-50% contamination with 5mm, friction coefficient 0.36.
خام UWKD 230830Z 16006MPS 9999 BKN046 M08/M11 Q1028 R11/450536 TEMPO 3100 -SN RMK QFE761/1015

IFR

-9°C / °C

[أكثر]
رياح 160º 10kt
مجال رؤية 3100m
حالة الطقس Light Snow 1.00mm precipitation
غيوم Vertical Visibility of 0ft.
الضغط 1028
تغيير Temporary: Visibility 2000. Snow . RMK QFE761/1014 . Runway 11: Dry snow, 26-50% contamination with 5mm, friction coefficient 0.36.
خام UWKD 230800Z 16005MPS 3100 -SN OVC033 M09/M11 Q1028 R11/450536 TEMPO 2000 SN RMK QFE761/1014

IFR

-9°C / °C

[أكثر]
رياح 160º 12kt
مجال رؤية 3500m
حالة الطقس Light Snow 1.00mm precipitation
غيوم Vertical Visibility of 0ft.
الضغط 1027
تغيير Temporary: Visibility 1500. Snow . RMK QFE760/1014 . Runway 11: Dry snow, 26-50% contamination with 5mm, friction coefficient 0.36.
خام UWKD 230730Z 16006MPS 3500 -SN OVC030 M09/M11 Q1027 R11/450536 TEMPO 1500 SN RMK QFE760/1014

IFR

-9°C / °C

[أكثر]
رياح 150º 10kt
مجال رؤية 2400m
حالة الطقس Light Snow 1.00mm precipitation
غيوم Vertical Visibility of 0ft.
الضغط 1027
تغيير Temporary: Visibility 1200. Snow . RMK QFE760/1014 . Runway 11: Dry snow, 26-50% contamination with 5mm, friction coefficient 0.36.
خام UWKD 230700Z 15005MPS 2400 -SN OVC032 M09/M11 Q1027 R11/450536 TEMPO 1200 SN RMK QFE760/1014

انقر ل55.61°شمال 49.28°شرق (UWKD)

From till


Maximum Temperature -8ºC on . Minimum Temperature -10ºC on .
From till Wind 130º 6kt. Visibility 3100m. Light Snow Mist . Overcast 1100ft.
Temporarly from till Visibility 804.670m. Heavy Showers Snow . Broken Clouds 300ft. Broken Clouds 1300ft.
Temporarly from till Visibility 498.895m. freezing Fog . Obscured Sky.
Becoming from till Wind 50º 6kt. Visibility 3100m. Light Snow Mist . Overcast 1100ft.
Becoming from till Wind 50º 6kt. Visibility 5000m. Mist . Overcast 700ft.

خام: TAF UWKD 231700Z 2318/2418 13003MPS 3100 -SN BR OVC011 TXM08/2412Z TNM10/2403Z TEMPO 2318/2324 0800 +SHSN BKN003 BKN013CB TEMPO 2400/2406 0500 FZFG VV002 BECMG 2403/2405 05003MPS BECMG 2409/2411 5000 BR OVC007

رادار وهطول الأمطار التنبؤ الآني ل55.61°شمال 49.28°شرق

رذاذ
ضوء
معتدل
ثقيل
ثقيل جدا
وابل

مؤشر المكان يشير الى 55.61°شمال 49.28°شرق. تظهر في هذه الرسوم المتحركة هطول الامطار بالرادار للساعة الماضية, و توقعات 1h. رذاذ أو تساقط ثلوج خفيف قد يكون غير مرئي للرادار. كثافة هطول الأمطار مرمزة بالألوان وتتراوح من الأزرق الفاتح إلى البرتقالي.

صور الأقمار الصناعية الملتقطة و الأمطار حالياً ل55.61°شمال 49.28°شرق

المؤشر يدل على موقع 55.61°شمال 49.28°شرق. [أكثر]

تجمع صورة الأقمار الصناعية في الوقت الفعلي بين الضوء المرئي أثناء النهار والأشعة تحت الحمراء أثناء الليل. لا تبدو الصورة مظلمة ليلاً، لأن الأشعة تحت الحمراء يمكنها الكشف عن الاختلافات في درجة الحرارة. لسوء الحظ ، يصعب التمييز بين السحب المنخفضة والضباب ودرجات حرارة الأرض ، وبالتالي يمكن أن تكون الصور غير مرئية تقريبًا أثناء الليل. يتم تحديث صور الأقمار الصناعية Meteosat الخاصة بأوروبا في الوقت الفعلي كل 5 دقائق، بينما يتم تحديث صور GOES-16 / GOES-17 (أمريكا الشمالية والجنوبية) و Himawari (آسيا) كل 10 دقائق.

حقوق النسخ 2022 EUMETSAT / meteoblue. / حقوق النسخ 2022 meteoblue